sensor_id;sensor_type;location;lat;lon;timestamp;temperature;humidity
4376;DHT22;2202;50.866;12.750;2022-10-20T00:02:04;6.00;90.50
4376;DHT22;2202;50.866;12.750;2022-10-20T00:04:31;6.00;90.60
4376;DHT22;2202;50.866;12.750;2022-10-20T00:06:58;6.00;90.70
4376;DHT22;2202;50.866;12.750;2022-10-20T00:09:25;6.00;90.90
4376;DHT22;2202;50.866;12.750;2022-10-20T00:11:53;6.00;91.00
4376;DHT22;2202;50.866;12.750;2022-10-20T00:14:20;6.00;91.00
4376;DHT22;2202;50.866;12.750;2022-10-20T00:16:47;6.00;90.80
4376;DHT22;2202;50.866;12.750;2022-10-20T00:19:14;5.90;90.80
4376;DHT22;2202;50.866;12.750;2022-10-20T00:21:40;5.90;91.00
4376;DHT22;2202;50.866;12.750;2022-10-20T00:24:07;5.90;91.10
4376;DHT22;2202;50.866;12.750;2022-10-20T00:26:34;5.90;91.10
4376;DHT22;2202;50.866;12.750;2022-10-20T00:29:03;5.80;91.10
4376;DHT22;2202;50.866;12.750;2022-10-20T00:31:30;5.80;91.30
4376;DHT22;2202;50.866;12.750;2022-10-20T00:33:57;5.90;91.20
4376;DHT22;2202;50.866;12.750;2022-10-20T00:36:24;5.90;91.10
4376;DHT22;2202;50.866;12.750;2022-10-20T00:38:56;5.80;91.20
4376;DHT22;2202;50.866;12.750;2022-10-20T00:41:23;5.80;91.20
4376;DHT22;2202;50.866;12.750;2022-10-20T00:43:51;5.70;91.20
4376;DHT22;2202;50.866;12.750;2022-10-20T00:46:21;5.70;91.20
4376;DHT22;2202;50.866;12.750;2022-10-20T00:48:51;5.70;91.20
4376;DHT22;2202;50.866;12.750;2022-10-20T00:51:23;5.70;91.20
4376;DHT22;2202;50.866;12.750;2022-10-20T00:53:52;5.70;91.40
4376;DHT22;2202;50.866;12.750;2022-10-20T00:56:21;5.60;91.40
4376;DHT22;2202;50.866;12.750;2022-10-20T00:58:49;5.60;91.40
4376;DHT22;2202;50.866;12.750;2022-10-20T01:01:16;5.50;91.70
4376;DHT22;2202;50.866;12.750;2022-10-20T01:03:47;5.50;91.90
4376;DHT22;2202;50.866;12.750;2022-10-20T01:06:17;5.50;92.10
4376;DHT22;2202;50.866;12.750;2022-10-20T01:08:44;5.40;92.20
4376;DHT22;2202;50.866;12.750;2022-10-20T01:11:17;5.40;92.30
4376;DHT22;2202;50.866;12.750;2022-10-20T01:13:56;5.40;92.40
4376;DHT22;2202;50.866;12.750;2022-10-20T01:16:36;5.30;92.40
4376;DHT22;2202;50.866;12.750;2022-10-20T01:19:11;5.30;92.50
4376;DHT22;2202;50.866;12.750;2022-10-20T01:21:59;5.30;92.50
4376;DHT22;2202;50.866;12.750;2022-10-20T01:24:46;5.30;92.40
4376;DHT22;2202;50.866;12.750;2022-10-20T01:27:34;5.20;92.40
4376;DHT22;2202;50.866;12.750;2022-10-20T01:30:11;5.20;92.40
4376;DHT22;2202;50.866;12.750;2022-10-20T01:32:54;5.10;92.30
4376;DHT22;2202;50.866;12.750;2022-10-20T01:35:31;5.00;92.70
4376;DHT22;2202;50.866;12.750;2022-10-20T01:38:06;5.00;92.70
4376;DHT22;2202;50.866;12.750;2022-10-20T01:40:41;5.00;92.70
4376;DHT22;2202;50.866;12.750;2022-10-20T01:43:13;4.90;92.70
4376;DHT22;2202;50.866;12.750;2022-10-20T01:45:44;4.80;92.70
4376;DHT22;2202;50.866;12.750;2022-10-20T01:48:12;4.80;92.70
4376;DHT22;2202;50.866;12.750;2022-10-20T01:50:40;4.70;92.80
4376;DHT22;2202;50.866;12.750;2022-10-20T01:53:08;4.60;92.90
4376;DHT22;2202;50.866;12.750;2022-10-20T01:55:36;4.60;92.90
4376;DHT22;2202;50.866;12.750;2022-10-20T01:58:28;4.60;92.90
4376;DHT22;2202;50.866;12.750;2022-10-20T02:01:06;4.50;92.90
4376;DHT22;2202;50.866;12.750;2022-10-20T02:03:44;4.40;93.00
4376;DHT22;2202;50.866;12.750;2022-10-20T02:06:25;4.40;93.20
4376;DHT22;2202;50.866;12.750;2022-10-20T02:08:56;4.30;93.30
4376;DHT22;2202;50.866;12.750;2022-10-20T02:11:26;4.30;93.40
4376;DHT22;2202;50.866;12.750;2022-10-20T02:13:57;4.30;93.40
4376;DHT22;2202;50.866;12.750;2022-10-20T02:16:27;4.20;93.50
4376;DHT22;2202;50.866;12.750;2022-10-20T02:18:55;4.20;93.60
4376;DHT22;2202;50.866;12.750;2022-10-20T02:21:24;4.20;93.80
4376;DHT22;2202;50.866;12.750;2022-10-20T02:23:52;4.10;93.80
4376;DHT22;2202;50.866;12.750;2022-10-20T02:26:22;4.10;93.80
4376;DHT22;2202;50.866;12.750;2022-10-20T02:28:54;4.10;93.80
4376;DHT22;2202;50.866;12.750;2022-10-20T02:31:24;4.00;93.80
4376;DHT22;2202;50.866;12.750;2022-10-20T02:33:52;4.00;93.80
4376;DHT22;2202;50.866;12.750;2022-10-20T02:36:25;3.90;93.80
4376;DHT22;2202;50.866;12.750;2022-10-20T02:38:53;3.90;93.80
4376;DHT22;2202;50.866;12.750;2022-10-20T02:41:20;3.90;93.80
4376;DHT22;2202;50.866;12.750;2022-10-20T02:43:46;3.80;93.80
4376;DHT22;2202;50.866;12.750;2022-10-20T02:46:13;3.80;93.70
4376;DHT22;2202;50.866;12.750;2022-10-20T02:48:42;3.70;93.60
4376;DHT22;2202;50.866;12.750;2022-10-20T02:51:09;3.60;93.80
4376;DHT22;2202;50.866;12.750;2022-10-20T02:53:37;3.60;93.80
4376;DHT22;2202;50.866;12.750;2022-10-20T02:56:05;3.50;93.80
4376;DHT22;2202;50.866;12.750;2022-10-20T02:58:32;3.50;93.70
4376;DHT22;2202;50.866;12.750;2022-10-20T03:00:58;3.50;93.80
4376;DHT22;2202;50.866;12.750;2022-10-20T03:03:25;3.40;93.80
4376;DHT22;2202;50.866;12.750;2022-10-20T03:05:54;3.40;93.90
4376;DHT22;2202;50.866;12.750;2022-10-20T03:08:21;3.40;93.80
4376;DHT22;2202;50.866;12.750;2022-10-20T03:10:47;3.30;93.80
4376;DHT22;2202;50.866;12.750;2022-10-20T03:13:14;3.30;93.80
4376;DHT22;2202;50.866;12.750;2022-10-20T03:15:41;3.20;93.80
4376;DHT22;2202;50.866;12.750;2022-10-20T03:18:08;3.20;93.70
4376;DHT22;2202;50.866;12.750;2022-10-20T03:20:35;3.10;94.00
4376;DHT22;2202;50.866;12.750;2022-10-20T03:23:03;3.10;94.10
4376;DHT22;2202;50.866;12.750;2022-10-20T03:25:30;3.10;94.00
4376;DHT22;2202;50.866;12.750;2022-10-20T03:27:58;3.00;93.70
4376;DHT22;2202;50.866;12.750;2022-10-20T03:30:25;3.00;93.90
4376;DHT22;2202;50.866;12.750;2022-10-20T03:32:52;3.00;93.90
4376;DHT22;2202;50.866;12.750;2022-10-20T03:35:19;3.00;94.00
4376;DHT22;2202;50.866;12.750;2022-10-20T03:37:45;3.00;94.00
4376;DHT22;2202;50.866;12.750;2022-10-20T03:40:14;2.90;93.90
4376;DHT22;2202;50.866;12.750;2022-10-20T03:42:40;2.90;94.00
4376;DHT22;2202;50.866;12.750;2022-10-20T03:45:08;2.80;94.00
4376;DHT22;2202;50.866;12.750;2022-10-20T03:47:35;2.80;94.10
4376;DHT22;2202;50.866;12.750;2022-10-20T03:50:03;2.70;94.20
4376;DHT22;2202;50.866;12.750;2022-10-20T03:52:30;2.70;94.50
4376;DHT22;2202;50.866;12.750;2022-10-20T03:54:57;2.70;94.60
4376;DHT22;2202;50.866;12.750;2022-10-20T03:57:25;2.70;94.70
4376;DHT22;2202;50.866;12.750;2022-10-20T03:59:52;2.70;94.90
4376;DHT22;2202;50.866;12.750;2022-10-20T04:02:30;2.70;95.00
4376;DHT22;2202;50.866;12.750;2022-10-20T04:04:58;2.70;95.00
4376;DHT22;2202;50.866;12.750;2022-10-20T04:07:24;2.70;94.90
4376;DHT22;2202;50.866;12.750;2022-10-20T04:09:51;2.60;94.90
4376;DHT22;2202;50.866;12.750;2022-10-20T04:12:18;2.60;95.10
4376;DHT22;2202;50.866;12.750;2022-10-20T04:14:46;2.60;95.10
4376;DHT22;2202;50.866;12.750;2022-10-20T04:17:14;2.60;95.10
4376;DHT22;2202;50.866;12.750;2022-10-20T04:19:40;2.60;95.10
4376;DHT22;2202;50.866;12.750;2022-10-20T04:22:07;2.60;95.00
4376;DHT22;2202;50.866;12.750;2022-10-20T04:24:34;2.50;94.90
4376;DHT22;2202;50.866;12.750;2022-10-20T04:27:01;2.50;95.00
4376;DHT22;2202;50.866;12.750;2022-10-20T04:29:28;2.50;94.90
4376;DHT22;2202;50.866;12.750;2022-10-20T04:31:56;2.40;95.00
4376;DHT22;2202;50.866;12.750;2022-10-20T04:34:23;2.40;95.10
4376;DHT22;2202;50.866;12.750;2022-10-20T04:36:50;2.40;95.20
4376;DHT22;2202;50.866;12.750;2022-10-20T04:39:17;2.40;95.30
4376;DHT22;2202;50.866;12.750;2022-10-20T04:41:44;2.40;95.20
4376;DHT22;2202;50.866;12.750;2022-10-20T04:44:11;2.40;95.10
4376;DHT22;2202;50.866;12.750;2022-10-20T04:46:37;2.40;95.00
4376;DHT22;2202;50.866;12.750;2022-10-20T04:49:06;2.30;94.90
4376;DHT22;2202;50.866;12.750;2022-10-20T04:51:32;2.30;94.90
4376;DHT22;2202;50.866;12.750;2022-10-20T04:53:59;2.30;95.00
4376;DHT22;2202;50.866;12.750;2022-10-20T04:56:26;2.20;95.10
4376;DHT22;2202;50.866;12.750;2022-10-20T04:58:55;2.30;94.90
4376;DHT22;2202;50.866;12.750;2022-10-20T05:01:23;2.20;94.80
4376;DHT22;2202;50.866;12.750;2022-10-20T05:03:50;2.20;95.10
4376;DHT22;2202;50.866;12.750;2022-10-20T05:06:20;2.20;94.90
4376;DHT22;2202;50.866;12.750;2022-10-20T05:08:49;2.20;94.80
4376;DHT22;2202;50.866;12.750;2022-10-20T05:11:18;2.10;94.70
4376;DHT22;2202;50.866;12.750;2022-10-20T05:13:45;2.10;94.70
4376;DHT22;2202;50.866;12.750;2022-10-20T05:16:12;2.00;94.80
4376;DHT22;2202;50.866;12.750;2022-10-20T05:18:39;2.00;94.90
4376;DHT22;2202;50.866;12.750;2022-10-20T05:21:07;2.00;94.80
4376;DHT22;2202;50.866;12.750;2022-10-20T05:23:36;2.00;94.80
4376;DHT22;2202;50.866;12.750;2022-10-20T05:26:04;2.00;94.80
4376;DHT22;2202;50.866;12.750;2022-10-20T05:28:31;2.00;94.90
4376;DHT22;2202;50.866;12.750;2022-10-20T05:31:00;2.00;94.90
4376;DHT22;2202;50.866;12.750;2022-10-20T05:33:27;1.90;94.90
4376;DHT22;2202;50.866;12.750;2022-10-20T05:35:54;1.90;94.90
4376;DHT22;2202;50.866;12.750;2022-10-20T05:38:21;1.90;95.00
4376;DHT22;2202;50.866;12.750;2022-10-20T05:40:50;2.00;95.10
4376;DHT22;2202;50.866;12.750;2022-10-20T05:43:16;2.00;95.00
4376;DHT22;2202;50.866;12.750;2022-10-20T05:45:43;1.90;95.10
4376;DHT22;2202;50.866;12.750;2022-10-20T05:48:10;2.00;95.20
4376;DHT22;2202;50.866;12.750;2022-10-20T05:50:37;2.00;95.20
4376;DHT22;2202;50.866;12.750;2022-10-20T05:53:04;2.00;95.20
4376;DHT22;2202;50.866;12.750;2022-10-20T05:55:31;2.00;95.20
4376;DHT22;2202;50.866;12.750;2022-10-20T05:57:59;2.00;95.20
4376;DHT22;2202;50.866;12.750;2022-10-20T06:00:26;2.00;95.20
4376;DHT22;2202;50.866;12.750;2022-10-20T06:02:56;2.00;95.30
4376;DHT22;2202;50.866;12.750;2022-10-20T06:05:23;2.00;95.40
4376;DHT22;2202;50.866;12.750;2022-10-20T06:07:52;2.00;95.50
4376;DHT22;2202;50.866;12.750;2022-10-20T06:10:19;2.00;95.60
4376;DHT22;2202;50.866;12.750;2022-10-20T06:12:46;2.10;95.60
4376;DHT22;2202;50.866;12.750;2022-10-20T06:15:14;2.10;95.70
4376;DHT22;2202;50.866;12.750;2022-10-20T06:17:41;2.10;95.70
4376;DHT22;2202;50.866;12.750;2022-10-20T06:20:09;2.20;95.80
4376;DHT22;2202;50.866;12.750;2022-10-20T06:22:35;2.20;95.80
4376;DHT22;2202;50.866;12.750;2022-10-20T06:25:03;2.20;96.00
4376;DHT22;2202;50.866;12.750;2022-10-20T06:27:30;2.30;96.10
4376;DHT22;2202;50.866;12.750;2022-10-20T06:29:57;2.30;96.10
4376;DHT22;2202;50.866;12.750;2022-10-20T06:32:25;2.40;96.10
4376;DHT22;2202;50.866;12.750;2022-10-20T06:34:52;2.50;96.20
4376;DHT22;2202;50.866;12.750;2022-10-20T06:37:19;2.50;96.10
4376;DHT22;2202;50.866;12.750;2022-10-20T06:39:46;2.60;96.20
4376;DHT22;2202;50.866;12.750;2022-10-20T06:42:13;2.70;96.30
4376;DHT22;2202;50.866;12.750;2022-10-20T06:44:39;2.70;96.40
4376;DHT22;2202;50.866;12.750;2022-10-20T06:47:06;2.80;96.60
4376;DHT22;2202;50.866;12.750;2022-10-20T06:49:36;2.90;96.60
4376;DHT22;2202;50.866;12.750;2022-10-20T06:52:03;3.00;96.80
4376;DHT22;2202;50.866;12.750;2022-10-20T06:54:30;3.20;97.00
4376;DHT22;2202;50.866;12.750;2022-10-20T06:56:57;3.50;97.90
4376;DHT22;2202;50.866;12.750;2022-10-20T06:59:24;4.10;99.30
4376;DHT22;2202;50.866;12.750;2022-10-20T07:01:50;4.90;99.60
4376;DHT22;2202;50.866;12.750;2022-10-20T07:04:18;5.80;98.80
4376;DHT22;2202;50.866;12.750;2022-10-20T07:06:46;6.70;96.70
4376;DHT22;2202;50.866;12.750;2022-10-20T07:09:14;7.30;92.80
4376;DHT22;2202;50.866;12.750;2022-10-20T07:11:41;7.90;90.00
4376;DHT22;2202;50.866;12.750;2022-10-20T07:14:09;8.30;86.80
4376;DHT22;2202;50.866;12.750;2022-10-20T07:16:37;8.70;85.60
4376;DHT22;2202;50.866;12.750;2022-10-20T07:19:04;8.90;83.20
4376;DHT22;2202;50.866;12.750;2022-10-20T07:21:31;9.30;83.00
4376;DHT22;2202;50.866;12.750;2022-10-20T07:24:00;9.80;82.00
4376;DHT22;2202;50.866;12.750;2022-10-20T07:26:29;10.10;80.20
4376;DHT22;2202;50.866;12.750;2022-10-20T07:28:57;10.20;78.80
4376;DHT22;2202;50.866;12.750;2022-10-20T07:31:26;10.20;76.60
4376;DHT22;2202;50.866;12.750;2022-10-20T07:33:54;10.30;79.40
4376;DHT22;2202;50.866;12.750;2022-10-20T07:36:24;10.80;77.20
4376;DHT22;2202;50.866;12.750;2022-10-20T07:38:52;11.10;73.80
4376;DHT22;2202;50.866;12.750;2022-10-20T07:41:21;11.00;74.20
4376;DHT22;2202;50.866;12.750;2022-10-20T07:43:48;10.80;75.80
4376;DHT22;2202;50.866;12.750;2022-10-20T07:46:15;10.60;74.60
4376;DHT22;2202;50.866;12.750;2022-10-20T07:48:42;10.50;74.40
4376;DHT22;2202;50.866;12.750;2022-10-20T07:51:14;10.30;73.20
4376;DHT22;2202;50.866;12.750;2022-10-20T07:53:41;10.40;76.60
4376;DHT22;2202;50.866;12.750;2022-10-20T07:56:08;10.40;73.60
4376;DHT22;2202;50.866;12.750;2022-10-20T07:58:37;10.60;74.00
4376;DHT22;2202;50.866;12.750;2022-10-20T08:01:04;10.70;75.40
4376;DHT22;2202;50.866;12.750;2022-10-20T08:03:32;10.90;76.20
4376;DHT22;2202;50.866;12.750;2022-10-20T08:05:59;11.00;73.40
4376;DHT22;2202;50.866;12.750;2022-10-20T08:08:26;11.10;74.40
4376;DHT22;2202;50.866;12.750;2022-10-20T08:10:53;11.30;73.20
4376;DHT22;2202;50.866;12.750;2022-10-20T08:13:20;11.40;75.00
4376;DHT22;2202;50.866;12.750;2022-10-20T08:15:48;11.40;73.80
4376;DHT22;2202;50.866;12.750;2022-10-20T08:18:15;11.40;71.60
4376;DHT22;2202;50.866;12.750;2022-10-20T08:20:42;11.50;74.80
4376;DHT22;2202;50.866;12.750;2022-10-20T08:23:10;11.50;64.60
4376;DHT22;2202;50.866;12.750;2022-10-20T08:25:37;11.40;64.60
4376;DHT22;2202;50.866;12.750;2022-10-20T08:28:04;11.50;67.80
4376;DHT22;2202;50.866;12.750;2022-10-20T08:30:32;11.70;67.40
4376;DHT22;2202;50.866;12.750;2022-10-20T08:33:01;11.80;68.00
4376;DHT22;2202;50.866;12.750;2022-10-20T08:35:28;11.90;64.60
4376;DHT22;2202;50.866;12.750;2022-10-20T08:37:55;12.00;65.40
4376;DHT22;2202;50.866;12.750;2022-10-20T08:40:24;12.10;60.60
4376;DHT22;2202;50.866;12.750;2022-10-20T08:42:51;12.10;60.60
4376;DHT22;2202;50.866;12.750;2022-10-20T08:45:21;12.30;59.90
4376;DHT22;2202;50.866;12.750;2022-10-20T08:47:50;12.30;58.90
4376;DHT22;2202;50.866;12.750;2022-10-20T08:50:20;12.30;57.80
4376;DHT22;2202;50.866;12.750;2022-10-20T08:52:52;12.30;56.70
4376;DHT22;2202;50.866;12.750;2022-10-20T08:55:25;12.40;56.60
4376;DHT22;2202;50.866;12.750;2022-10-20T08:57:56;12.60;56.60
4376;DHT22;2202;50.866;12.750;2022-10-20T09:00:25;12.80;56.20
4376;DHT22;2202;50.866;12.750;2022-10-20T09:02:53;12.90;56.00
4376;DHT22;2202;50.866;12.750;2022-10-20T09:05:23;13.20;55.10
4376;DHT22;2202;50.866;12.750;2022-10-20T09:07:51;13.30;56.20
4376;DHT22;2202;50.866;12.750;2022-10-20T09:10:27;13.40;55.30
4376;DHT22;2202;50.866;12.750;2022-10-20T09:12:55;13.50;52.80
4376;DHT22;2202;50.866;12.750;2022-10-20T09:15:22;13.70;55.90
4376;DHT22;2202;50.866;12.750;2022-10-20T09:17:54;13.80;54.30
4376;DHT22;2202;50.866;12.750;2022-10-20T09:20:25;13.90;52.10
4376;DHT22;2202;50.866;12.750;2022-10-20T09:22:53;14.00;54.60
4376;DHT22;2202;50.866;12.750;2022-10-20T09:25:23;14.10;53.00
4376;DHT22;2202;50.866;12.750;2022-10-20T09:27:52;14.00;50.70
4376;DHT22;2202;50.866;12.750;2022-10-20T09:30:20;13.80;47.90
4376;DHT22;2202;50.866;12.750;2022-10-20T09:32:48;13.80;49.60
4376;DHT22;2202;50.866;12.750;2022-10-20T09:35:18;13.80;48.60
4376;DHT22;2202;50.866;12.750;2022-10-20T09:37:55;13.80;50.20
4376;DHT22;2202;50.866;12.750;2022-10-20T09:40:24;13.80;48.80
4376;DHT22;2202;50.866;12.750;2022-10-20T09:42:53;13.90;50.50
4376;DHT22;2202;50.866;12.750;2022-10-20T09:45:23;13.90;50.90
4376;DHT22;2202;50.866;12.750;2022-10-20T09:47:57;14.10;50.30
4376;DHT22;2202;50.866;12.750;2022-10-20T09:50:29;14.20;49.50
4376;DHT22;2202;50.866;12.750;2022-10-20T09:52:58;14.20;47.70
4376;DHT22;2202;50.866;12.750;2022-10-20T09:55:28;14.20;48.40
4376;DHT22;2202;50.866;12.750;2022-10-20T09:57:57;14.10;47.00
4376;DHT22;2202;50.866;12.750;2022-10-20T10:00:26;14.10;45.70
4376;DHT22;2202;50.866;12.750;2022-10-20T10:03:17;14.00;46.60
4376;DHT22;2202;50.866;12.750;2022-10-20T10:05:49;14.10;48.00
4376;DHT22;2202;50.866;12.750;2022-10-20T10:08:18;14.20;47.50
4376;DHT22;2202;50.866;12.750;2022-10-20T10:10:57;14.30;47.20
4376;DHT22;2202;50.866;12.750;2022-10-20T10:13:26;14.40;47.90
4376;DHT22;2202;50.866;12.750;2022-10-20T10:15:59;14.50;46.10
4376;DHT22;2202;50.866;12.750;2022-10-20T10:18:27;14.50;44.10
4376;DHT22;2202;50.866;12.750;2022-10-20T10:20:59;14.50;45.20
4376;DHT22;2202;50.866;12.750;2022-10-20T10:23:29;14.50;45.20
4376;DHT22;2202;50.866;12.750;2022-10-20T10:25:57;14.60;44.10
4376;DHT22;2202;50.866;12.750;2022-10-20T10:28:33;14.60;43.80
4376;DHT22;2202;50.866;12.750;2022-10-20T10:31:17;14.70;43.60
4376;DHT22;2202;50.866;12.750;2022-10-20T10:33:45;14.80;44.00
4376;DHT22;2202;50.866;12.750;2022-10-20T10:36:17;14.90;43.10
4376;DHT22;2202;50.866;12.750;2022-10-20T10:38:48;15.00;42.70
4376;DHT22;2202;50.866;12.750;2022-10-20T10:41:20;15.10;42.20
4376;DHT22;2202;50.866;12.750;2022-10-20T10:43:54;15.30;41.10
4376;DHT22;2202;50.866;12.750;2022-10-20T10:46:27;15.40;41.70
4376;DHT22;2202;50.866;12.750;2022-10-20T10:49:26;15.50;39.00
4376;DHT22;2202;50.866;12.750;2022-10-20T10:52:03;15.60;37.40
4376;DHT22;2202;50.866;12.750;2022-10-20T10:54:48;15.60;36.50
4376;DHT22;2202;50.866;12.750;2022-10-20T10:57:25;15.60;39.00
4376;DHT22;2202;50.866;12.750;2022-10-20T10:59:52;15.80;37.40
4376;DHT22;2202;50.866;12.750;2022-10-20T11:02:57;15.80;35.30
4376;DHT22;2202;50.866;12.750;2022-10-20T11:05:50;15.90;35.60
4376;DHT22;2202;50.866;12.750;2022-10-20T11:08:26;16.00;32.60
4376;DHT22;2202;50.866;12.750;2022-10-20T11:11:00;16.10;33.50
4376;DHT22;2202;50.866;12.750;2022-10-20T11:13:33;16.20;34.70
4376;DHT22;2202;50.866;12.750;2022-10-20T11:16:17;16.30;34.40
4376;DHT22;2202;50.866;12.750;2022-10-20T11:19:06;16.50;32.20
4376;DHT22;2202;50.866;12.750;2022-10-20T11:21:44;16.60;29.70
4376;DHT22;2202;50.866;12.750;2022-10-20T11:24:32;16.60;29.50
4376;DHT22;2202;50.866;12.750;2022-10-20T11:27:06;16.70;28.60
4376;DHT22;2202;50.866;12.750;2022-10-20T11:29:38;16.80;29.90
4376;DHT22;2202;50.866;12.750;2022-10-20T11:32:15;16.90;29.00
4376;DHT22;2202;50.866;12.750;2022-10-20T11:34:51;17.00;28.00
4376;DHT22;2202;50.866;12.750;2022-10-20T11:37:23;17.00;28.40
4376;DHT22;2202;50.866;12.750;2022-10-20T11:39:55;17.10;27.90
4376;DHT22;2202;50.866;12.750;2022-10-20T11:42:30;17.10;27.10
4376;DHT22;2202;50.866;12.750;2022-10-20T11:45:18;17.20;28.90
4376;DHT22;2202;50.866;12.750;2022-10-20T11:47:49;17.40;28.60
4376;DHT22;2202;50.866;12.750;2022-10-20T11:50:18;17.30;27.70
4376;DHT22;2202;50.866;12.750;2022-10-20T11:52:57;17.30;28.20
4376;DHT22;2202;50.866;12.750;2022-10-20T11:55:48;17.20;28.20
4376;DHT22;2202;50.866;12.750;2022-10-20T11:58:37;17.20;27.70
4376;DHT22;2202;50.866;12.750;2022-10-20T12:01:23;17.30;27.40
4376;DHT22;2202;50.866;12.750;2022-10-20T12:04:24;17.30;28.10
4376;DHT22;2202;50.866;12.750;2022-10-20T12:07:13;17.40;28.50
4376;DHT22;2202;50.866;12.750;2022-10-20T12:10:14;17.70;29.60
4376;DHT22;2202;50.866;12.750;2022-10-20T12:12:52;17.80;27.90
4376;DHT22;2202;50.866;12.750;2022-10-20T12:15:26;17.90;26.60
4376;DHT22;2202;50.866;12.750;2022-10-20T12:17:54;17.90;27.70
4376;DHT22;2202;50.866;12.750;2022-10-20T12:20:52;17.80;27.10
4376;DHT22;2202;50.866;12.750;2022-10-20T12:23:53;17.80;27.40
4376;DHT22;2202;50.866;12.750;2022-10-20T12:29:48;17.70;26.00
4376;DHT22;2202;50.866;12.750;2022-10-20T12:38:18;17.50;24.10
4376;DHT22;2202;50.866;12.750;2022-10-20T12:40:50;17.40;25.40
4376;DHT22;2202;50.866;12.750;2022-10-20T12:43:29;17.50;25.30
4376;DHT22;2202;50.866;12.750;2022-10-20T12:45:58;17.40;25.60
4376;DHT22;2202;50.866;12.750;2022-10-20T12:48:32;17.50;25.10
4376;DHT22;2202;50.866;12.750;2022-10-20T12:51:04;17.80;25.40
4376;DHT22;2202;50.866;12.750;2022-10-20T12:53:32;17.80;24.40
4376;DHT22;2202;50.866;12.750;2022-10-20T12:56:03;17.80;26.00
4376;DHT22;2202;50.866;12.750;2022-10-20T12:58:33;17.80;25.40
4376;DHT22;2202;50.866;12.750;2022-10-20T13:01:07;17.80;24.80
4376;DHT22;2202;50.866;12.750;2022-10-20T13:03:41;17.70;26.20
4376;DHT22;2202;50.866;12.750;2022-10-20T13:06:39;17.70;26.00
4376;DHT22;2202;50.866;12.750;2022-10-20T13:09:22;17.80;25.10
4376;DHT22;2202;50.866;12.750;2022-10-20T13:11:58;17.80;26.60
4376;DHT22;2202;50.866;12.750;2022-10-20T13:14:34;17.90;27.30
4376;DHT22;2202;50.866;12.750;2022-10-20T13:17:10;18.00;25.10
4376;DHT22;2202;50.866;12.750;2022-10-20T13:19:44;18.20;27.00
4376;DHT22;2202;50.866;12.750;2022-10-20T13:25:13;18.60;25.90
4376;DHT22;2202;50.866;12.750;2022-10-20T13:27:42;18.50;25.80
4376;DHT22;2202;50.866;12.750;2022-10-20T13:30:13;18.60;25.00
4376;DHT22;2202;50.866;12.750;2022-10-20T13:32:50;18.60;25.30
4376;DHT22;2202;50.866;12.750;2022-10-20T13:35:25;18.60;25.30
4376;DHT22;2202;50.866;12.750;2022-10-20T13:37:56;18.50;23.30
4376;DHT22;2202;50.866;12.750;2022-10-20T13:40:36;18.40;25.40
4376;DHT22;2202;50.866;12.750;2022-10-20T13:43:21;18.50;26.10
4376;DHT22;2202;50.866;12.750;2022-10-20T13:46:17;18.40;25.20
4376;DHT22;2202;50.866;12.750;2022-10-20T13:49:02;18.30;25.10
4376;DHT22;2202;50.866;12.750;2022-10-20T13:51:37;18.30;26.30
4376;DHT22;2202;50.866;12.750;2022-10-20T13:54:06;18.20;24.50
4376;DHT22;2202;50.866;12.750;2022-10-20T13:56:35;18.10;26.20
4376;DHT22;2202;50.866;12.750;2022-10-20T13:59:04;18.10;26.10
4376;DHT22;2202;50.866;12.750;2022-10-20T14:01:33;18.10;25.80
4376;DHT22;2202;50.866;12.750;2022-10-20T14:04:00;17.90;25.20
4376;DHT22;2202;50.866;12.750;2022-10-20T14:06:34;17.90;26.20
4376;DHT22;2202;50.866;12.750;2022-10-20T14:09:10;17.90;25.80
4376;DHT22;2202;50.866;12.750;2022-10-20T14:11:38;17.80;26.40
4376;DHT22;2202;50.866;12.750;2022-10-20T14:14:08;17.70;26.30
4376;DHT22;2202;50.866;12.750;2022-10-20T14:16:36;17.60;26.60
4376;DHT22;2202;50.866;12.750;2022-10-20T14:19:06;17.60;26.70
4376;DHT22;2202;50.866;12.750;2022-10-20T14:21:43;17.50;26.20
4376;DHT22;2202;50.866;12.750;2022-10-20T14:24:14;17.40;27.20
4376;DHT22;2202;50.866;12.750;2022-10-20T14:26:42;17.20;27.80
4376;DHT22;2202;50.866;12.750;2022-10-20T14:29:11;17.10;27.60
4376;DHT22;2202;50.866;12.750;2022-10-20T14:31:39;17.10;28.50
4376;DHT22;2202;50.866;12.750;2022-10-20T14:34:16;17.10;29.30
4376;DHT22;2202;50.866;12.750;2022-10-20T14:36:46;17.00;29.40
4376;DHT22;2202;50.866;12.750;2022-10-20T14:39:21;16.90;30.80
4376;DHT22;2202;50.866;12.750;2022-10-20T14:41:54;16.60;29.40
4376;DHT22;2202;50.866;12.750;2022-10-20T14:44:23;16.50;29.70
4376;DHT22;2202;50.866;12.750;2022-10-20T14:46:51;16.20;32.20
4376;DHT22;2202;50.866;12.750;2022-10-20T14:49:23;16.10;30.80
4376;DHT22;2202;50.866;12.750;2022-10-20T14:51:57;15.90;31.70
4376;DHT22;2202;50.866;12.750;2022-10-20T14:54:26;15.70;33.10
4376;DHT22;2202;50.866;12.750;2022-10-20T14:56:58;15.60;34.00
4376;DHT22;2202;50.866;12.750;2022-10-20T14:59:27;15.50;34.40
4376;DHT22;2202;50.866;12.750;2022-10-20T15:02:03;15.40;34.70
4376;DHT22;2202;50.866;12.750;2022-10-20T15:04:34;15.30;34.90
4376;DHT22;2202;50.866;12.750;2022-10-20T15:07:04;15.20;35.60
4376;DHT22;2202;50.866;12.750;2022-10-20T15:09:33;15.00;36.90
4376;DHT22;2202;50.866;12.750;2022-10-20T15:12:04;14.90;37.20
4376;DHT22;2202;50.866;12.750;2022-10-20T15:14:31;14.70;37.40
4376;DHT22;2202;50.866;12.750;2022-10-20T15:16:59;14.60;38.30
4376;DHT22;2202;50.866;12.750;2022-10-20T15:19:32;14.50;39.30
4376;DHT22;2202;50.866;12.750;2022-10-20T15:22:07;14.30;39.00
4376;DHT22;2202;50.866;12.750;2022-10-20T15:24:34;14.20;39.70
4376;DHT22;2202;50.866;12.750;2022-10-20T15:27:02;14.00;39.50
4376;DHT22;2202;50.866;12.750;2022-10-20T15:29:29;13.80;40.40
4376;DHT22;2202;50.866;12.750;2022-10-20T15:31:56;13.60;41.70
4376;DHT22;2202;50.866;12.750;2022-10-20T15:34:23;13.50;42.50
4376;DHT22;2202;50.866;12.750;2022-10-20T15:36:51;13.30;43.20
4376;DHT22;2202;50.866;12.750;2022-10-20T15:39:19;13.20;43.80
4376;DHT22;2202;50.866;12.750;2022-10-20T15:41:46;13.10;44.50
4376;DHT22;2202;50.866;12.750;2022-10-20T15:44:15;13.00;45.20
4376;DHT22;2202;50.866;12.750;2022-10-20T15:46:44;12.90;45.00
4376;DHT22;2202;50.866;12.750;2022-10-20T15:49:11;12.70;46.40
4376;DHT22;2202;50.866;12.750;2022-10-20T15:51:39;12.60;47.20
4376;DHT22;2202;50.866;12.750;2022-10-20T15:54:07;12.50;47.30
4376;DHT22;2202;50.866;12.750;2022-10-20T15:56:38;12.40;48.20
4376;DHT22;2202;50.866;12.750;2022-10-20T15:59:04;12.30;48.60
4376;DHT22;2202;50.866;12.750;2022-10-20T16:01:31;12.20;48.40
4376;DHT22;2202;50.866;12.750;2022-10-20T16:04:00;12.10;49.60
4376;DHT22;2202;50.866;12.750;2022-10-20T16:06:28;12.00;49.50
4376;DHT22;2202;50.866;12.750;2022-10-20T16:08:54;11.90;50.00
4376;DHT22;2202;50.866;12.750;2022-10-20T16:11:21;11.90;50.70
4376;DHT22;2202;50.866;12.750;2022-10-20T16:13:49;11.70;50.70
4376;DHT22;2202;50.866;12.750;2022-10-20T16:16:17;11.60;52.30
4376;DHT22;2202;50.866;12.750;2022-10-20T16:18:45;11.60;52.30
4376;DHT22;2202;50.866;12.750;2022-10-20T16:21:12;11.40;53.00
4376;DHT22;2202;50.866;12.750;2022-10-20T16:23:39;11.30;53.50
4376;DHT22;2202;50.866;12.750;2022-10-20T16:26:08;11.20;54.40
4376;DHT22;2202;50.866;12.750;2022-10-20T16:28:36;11.10;55.00